Terminal Aerodrome Forecast
Issued by NWS

Home | Current Version | Previous Version | Text Only | Print | Product List | Glossary On
Versions: 1 2 3 4 5 6 7 8 9 10 11 12 13 14 15 16
000
FTAK31 PAJN 182328
TAFAYA
TAF
PAYA 182328Z 1900/1924 06004KT P6SM SKC
     FM191400 VRB02KT P6SM OVC150
     FM192100 08004KT P6SM BKN060 OVC150
      AMD LTD TO CLD VIS AND WIND=

USA.gov is the U.S. government's official web portal to all federal, state and local government web resources and services.